createdAt,value
2022-10-23T00:03:50.660Z,46.91
2022-10-23T00:10:39.539Z,46.93
2022-10-23T00:17:10.375Z,47.04
2022-10-23T00:23:36.459Z,47.12
2022-10-23T00:30:00.895Z,47.24
2022-10-23T00:36:24.381Z,47.12
2022-10-23T00:42:47.365Z,47.29
2022-10-23T00:49:19.101Z,47.45
2022-10-23T00:56:00.510Z,47.35
2022-10-23T01:02:30.434Z,47.42
2022-10-23T01:09:11.571Z,47.57
2022-10-23T01:23:00.357Z,47.90
2022-10-23T01:29:38.882Z,47.69
2022-10-23T01:36:04.589Z,47.69
2022-10-23T01:42:40.360Z,47.89
2022-10-23T01:49:10.771Z,47.99
2022-10-23T01:55:35.700Z,47.92
2022-10-23T02:01:52.580Z,47.80
2022-10-23T02:08:04.625Z,47.92
2022-10-23T02:14:24.499Z,47.97
2022-10-23T02:20:39.764Z,48.03
2022-10-23T02:27:13.845Z,47.96
2022-10-23T02:33:16.628Z,47.78
2022-10-23T02:39:46.494Z,48.02
2022-10-23T02:46:33.784Z,48.03
2022-10-23T02:53:20.329Z,48.23
2022-10-23T02:59:47.374Z,48.09
2022-10-23T03:06:22.062Z,48.24
2022-10-23T03:12:48.337Z,48.04
2022-10-23T03:25:57.542Z,48.20
2022-10-23T03:32:26.785Z,48.28
2022-10-23T03:52:00.580Z,48.41
2022-10-23T03:58:25.119Z,48.33
2022-10-23T04:11:38.420Z,48.59
2022-10-23T04:17:47.490Z,48.66
2022-10-23T04:30:47.890Z,48.67
2022-10-23T04:36:56.591Z,48.60
2022-10-23T04:43:26.016Z,48.52
2022-10-23T04:50:13.401Z,47.90
2022-10-23T04:56:37.044Z,47.57
2022-10-23T05:03:02.876Z,46.87
2022-10-23T05:09:31.280Z,46.48
2022-10-23T05:16:12.498Z,46.02
2022-10-23T05:22:31.591Z,45.66
2022-10-23T05:28:48.457Z,45.48
2022-10-23T05:35:13.929Z,45.05
2022-10-23T05:41:20.648Z,45.08
2022-10-23T05:47:50.723Z,45.05
2022-10-23T05:54:11.549Z,44.92
2022-10-23T06:00:40.739Z,44.95
2022-10-23T06:07:05.131Z,45.21
2022-10-23T06:13:36.069Z,45.17
2022-10-23T06:26:42.256Z,45.12
2022-10-23T06:32:52.571Z,45.19
2022-10-23T06:39:26.133Z,45.18
2022-10-23T06:45:49.379Z,45.45
2022-10-23T06:52:14.441Z,45.61
2022-10-23T06:59:05.680Z,45.57
2022-10-23T07:05:29.898Z,45.77
2022-10-23T07:11:57.399Z,46.07
2022-10-23T07:18:17.033Z,46.18
2022-10-23T07:24:40.529Z,46.49
2022-10-23T07:31:00.174Z,46.77
2022-10-23T07:37:36.971Z,47.25
2022-10-23T07:44:03.455Z,47.20
2022-10-23T07:50:35.427Z,47.38
2022-10-23T07:57:00.269Z,47.30
2022-10-23T08:03:24.386Z,47.40
2022-10-23T08:09:56.599Z,47.52
2022-10-23T08:16:26.721Z,47.49
2022-10-23T08:22:58.647Z,47.40
2022-10-23T08:29:24.991Z,47.51
2022-10-23T08:35:49.178Z,47.44
2022-10-23T08:42:21.316Z,47.69
2022-10-23T08:48:44.728Z,48.66
2022-10-23T08:55:22.064Z,49.14
2022-10-23T09:02:02.255Z,50.16
2022-10-23T09:08:41.219Z,51.91
2022-10-23T09:15:22.580Z,52.53
2022-10-23T09:21:47.111Z,52.19
2022-10-23T09:28:20.658Z,51.82
2022-10-23T09:34:45.196Z,51.41
2022-10-23T09:41:13.873Z,51.02
2022-10-23T09:47:41.534Z,50.78
2022-10-23T09:53:49.272Z,50.65
2022-10-23T10:00:13.622Z,50.95
2022-10-23T10:06:39.018Z,51.66
2022-10-23T10:13:25.283Z,52.49
2022-10-23T10:20:05.240Z,52.90
2022-10-23T10:26:37.893Z,53.42
2022-10-23T10:33:05.914Z,53.25
2022-10-23T10:39:35.279Z,52.75
2022-10-23T10:46:31.973Z,52.48
2022-10-23T10:53:01.776Z,52.79
2022-10-23T10:59:27.954Z,52.13
2022-10-23T11:05:54.842Z,51.99
2022-10-23T11:12:03.599Z,51.87
2022-10-23T11:18:43.910Z,51.61
2022-10-23T11:25:04.892Z,52.19
2022-10-23T11:31:12.158Z,52.21
2022-10-23T11:37:32.615Z,52.23
2022-10-23T11:44:09.634Z,51.88
2022-10-23T11:57:34.059Z,51.48
2022-10-23T12:04:03.585Z,51.45
2022-10-23T12:10:46.791Z,52.56
2022-10-23T12:30:24.303Z,52.59
2022-10-23T12:36:38.276Z,52.52
2022-10-23T12:43:16.149Z,52.41
2022-10-23T12:50:04.685Z,52.38
2022-10-23T12:56:37.743Z,52.19
2022-10-23T13:02:57.677Z,52.06
2022-10-23T13:09:27.930Z,52.10
2022-10-23T13:16:05.511Z,52.09
2022-10-23T13:36:06.123Z,51.93
2022-10-23T13:42:29.529Z,51.82
2022-10-23T13:48:49.259Z,51.65
2022-10-23T13:54:56.387Z,51.16
2022-10-23T14:01:16.650Z,50.94
2022-10-23T14:07:37.967Z,50.44
2022-10-23T14:13:43.242Z,50.09
2022-10-23T14:20:17.283Z,49.86
2022-10-23T14:26:44.839Z,49.34
2022-10-23T14:33:02.087Z,49.05
2022-10-23T14:39:38.079Z,48.65
2022-10-23T14:46:00.083Z,48.20
2022-10-23T14:52:25.338Z,48.04
2022-10-23T14:58:43.244Z,47.77
2022-10-23T15:05:08.527Z,47.64
2022-10-23T15:11:26.161Z,47.59
2022-10-23T15:17:54.596Z,47.38
2022-10-23T15:24:18.447Z,47.25
2022-10-23T15:30:43.602Z,47.16
2022-10-23T15:37:10.381Z,46.99
2022-10-23T15:43:23.491Z,47.05
2022-10-23T15:49:57.030Z,46.99
2022-10-23T15:56:15.919Z,46.96
2022-10-23T16:02:45.073Z,46.98
2022-10-23T16:09:11.704Z,46.93
2022-10-23T16:15:52.818Z,47.01
2022-10-23T16:28:40.081Z,46.81
2022-10-23T16:34:41.733Z,46.82
2022-10-23T16:40:48.818Z,46.87
2022-10-23T16:47:24.401Z,46.79
2022-10-23T17:00:29.846Z,46.57
2022-10-23T17:06:25.852Z,46.47
2022-10-23T17:12:24.641Z,46.36
2022-10-23T17:18:43.845Z,46.31
2022-10-23T17:31:33.857Z,46.22
2022-10-23T17:37:42.756Z,46.25
2022-10-23T17:43:40.923Z,46.22
2022-10-23T17:50:03.712Z,46.18
2022-10-23T17:56:29.094Z,45.96
2022-10-23T18:02:49.814Z,45.93
2022-10-23T18:08:58.741Z,45.74
2022-10-23T18:15:07.575Z,45.70
2022-10-23T18:21:33.311Z,45.52
2022-10-23T18:34:46.055Z,45.52
2022-10-23T18:41:21.551Z,45.47
2022-10-23T18:54:44.076Z,45.37
2022-10-23T19:01:02.077Z,45.66
2022-10-23T19:07:31.644Z,46.00
2022-10-23T19:13:55.832Z,46.26
2022-10-23T19:20:04.737Z,46.45
2022-10-23T19:26:04.900Z,46.58
2022-10-23T19:32:30.396Z,46.54
2022-10-23T19:38:54.718Z,46.61
2022-10-23T19:45:04.497Z,46.63
2022-10-23T19:51:31.281Z,46.73
2022-10-23T19:57:28.914Z,46.57
2022-10-23T20:04:04.578Z,46.64
2022-10-23T20:10:34.750Z,46.61
2022-10-23T20:16:43.925Z,46.54
2022-10-23T20:23:08.212Z,46.73
2022-10-23T20:29:32.536Z,46.73
2022-10-23T20:35:56.822Z,46.64
2022-10-23T20:42:21.045Z,46.79
2022-10-23T20:48:39.715Z,46.83
2022-10-23T20:55:05.445Z,46.82
2022-10-23T21:01:42.246Z,46.85
2022-10-23T21:14:38.868Z,47.02
2022-10-23T21:28:05.830Z,46.99
2022-10-23T21:34:31.894Z,47.02
2022-10-23T21:54:35.411Z,47.14
2022-10-23T22:00:48.066Z,46.98
2022-10-23T22:07:11.699Z,47.08
2022-10-23T22:13:38.945Z,47.24
2022-10-23T22:20:03.442Z,47.13
2022-10-23T22:26:27.737Z,47.10
2022-10-23T22:32:52.753Z,47.12
2022-10-23T22:39:17.799Z,47.35
2022-10-23T22:45:43.981Z,47.27
2022-10-23T22:52:14.096Z,47.42
2022-10-23T22:58:40.465Z,47.50
2022-10-23T23:04:58.472Z,47.47
2022-10-23T23:11:22.687Z,47.42
2022-10-23T23:17:47.219Z,47.40
2022-10-23T23:24:18.505Z,47.40
2022-10-23T23:37:21.596Z,47.58
2022-10-23T23:43:46.609Z,47.46
2022-10-23T23:50:12.860Z,47.52
2022-10-23T23:56:38.331Z,47.57
